sensor_id;sensor_type;location;lat;lon;timestamp;pressure;altitude;pressure_sealevel;temperature;humidity
65685;BME280;52405;50.844;-1.062;2022-12-13T00:01:48;100967.63;;;2.76;67.31
65685;BME280;52405;50.844;-1.062;2022-12-13T00:04:19;100975.00;;;2.71;66.78
65685;BME280;52405;50.844;-1.062;2022-12-13T00:06:45;100969.09;;;2.72;67.25
65685;BME280;52405;50.844;-1.062;2022-12-13T00:09:15;100964.41;;;2.66;67.35
65685;BME280;52405;50.844;-1.062;2022-12-13T00:11:41;100972.22;;;2.68;67.23
65685;BME280;52405;50.844;-1.062;2022-12-13T00:14:07;100968.66;;;2.66;67.71
65685;BME280;52405;50.844;-1.062;2022-12-13T00:16:32;100973.59;;;2.63;67.46
65685;BME280;52405;50.844;-1.062;2022-12-13T00:18:59;100963.09;;;2.60;67.59
65685;BME280;52405;50.844;-1.062;2022-12-13T00:21:27;100954.88;;;2.52;67.88
65685;BME280;52405;50.844;-1.062;2022-12-13T00:23:53;100962.75;;;2.55;67.43
65685;BME280;52405;50.844;-1.062;2022-12-13T00:26:20;100944.59;;;2.52;67.12
65685;BME280;52405;50.844;-1.062;2022-12-13T00:28:47;100943.38;;;2.47;67.48
65685;BME280;52405;50.844;-1.062;2022-12-13T00:31:14;100950.28;;;2.48;67.95
65685;BME280;52405;50.844;-1.062;2022-12-13T00:33:40;100956.84;;;2.44;67.54
65685;BME280;52405;50.844;-1.062;2022-12-13T00:36:06;100956.78;;;2.43;67.44
65685;BME280;52405;50.844;-1.062;2022-12-13T00:38:36;100948.84;;;2.40;68.31
65685;BME280;52405;50.844;-1.062;2022-12-13T00:41:16;100923.56;;;2.33;68.01
65685;BME280;52405;50.844;-1.062;2022-12-13T00:43:43;100943.84;;;2.41;67.78
65685;BME280;52405;50.844;-1.062;2022-12-13T00:46:16;100931.66;;;2.39;67.45
65685;BME280;52405;50.844;-1.062;2022-12-13T00:48:45;100936.03;;;2.40;68.45
65685;BME280;52405;50.844;-1.062;2022-12-13T00:51:12;100935.16;;;2.39;67.76
65685;BME280;52405;50.844;-1.062;2022-12-13T00:53:38;100929.91;;;2.38;67.60
65685;BME280;52405;50.844;-1.062;2022-12-13T00:56:14;100937.78;;;2.41;67.35
65685;BME280;52405;50.844;-1.062;2022-12-13T00:58:40;100933.34;;;2.38;68.05
65685;BME280;52405;50.844;-1.062;2022-12-13T01:01:09;100926.34;;;2.36;67.46
65685;BME280;52405;50.844;-1.062;2022-12-13T01:03:35;100923.56;;;2.33;68.14
65685;BME280;52405;50.844;-1.062;2022-12-13T01:06:01;100909.41;;;2.26;68.10
65685;BME280;52405;50.844;-1.062;2022-12-13T01:08:32;100917.44;;;2.30;67.60
65685;BME280;52405;50.844;-1.062;2022-12-13T01:10:57;100922.56;;;2.30;68.38
65685;BME280;52405;50.844;-1.062;2022-12-13T01:13:23;100925.00;;;2.29;68.21
65685;BME280;52405;50.844;-1.062;2022-12-13T01:15:48;100925.88;;;2.29;68.06
65685;BME280;52405;50.844;-1.062;2022-12-13T01:18:14;100922.31;;;2.27;68.04
65685;BME280;52405;50.844;-1.062;2022-12-13T01:20:43;100891.81;;;2.07;67.36
65685;BME280;52405;50.844;-1.062;2022-12-13T01:23:09;100925.88;;;2.29;67.49
65685;BME280;52405;50.844;-1.062;2022-12-13T01:25:36;100929.13;;;2.27;67.46
65685;BME280;52405;50.844;-1.062;2022-12-13T01:28:02;100932.56;;;2.27;67.41
65685;BME280;52405;50.844;-1.062;2022-12-13T01:30:27;100934.38;;;2.28;67.67
65685;BME280;52405;50.844;-1.062;2022-12-13T01:32:53;100929.81;;;2.24;68.14
65685;BME280;52405;50.844;-1.062;2022-12-13T01:35:18;100933.50;;;2.28;68.00
65685;BME280;52405;50.844;-1.062;2022-12-13T01:37:44;100937.69;;;2.27;67.81
65685;BME280;52405;50.844;-1.062;2022-12-13T01:40:10;100930.00;;;2.27;68.30
65685;BME280;52405;50.844;-1.062;2022-12-13T01:42:37;100910.53;;;2.18;67.54
65685;BME280;52405;50.844;-1.062;2022-12-13T01:45:32;100933.50;;;2.28;68.34
65685;BME280;52405;50.844;-1.062;2022-12-13T01:48:00;100931.81;;;2.28;67.91
65685;BME280;52405;50.844;-1.062;2022-12-13T01:50:31;100919.75;;;2.27;67.53
65685;BME280;52405;50.844;-1.062;2022-12-13T01:52:59;100924.13;;;2.28;67.99
65685;BME280;52405;50.844;-1.062;2022-12-13T01:55:29;100923.25;;;2.28;67.30
65685;BME280;52405;50.844;-1.062;2022-12-13T01:57:58;100917.78;;;2.23;68.06
65685;BME280;52405;50.844;-1.062;2022-12-13T02:00:26;100927.91;;;2.22;67.32
65685;BME280;52405;50.844;-1.062;2022-12-13T02:02:53;100922.47;;;2.17;67.86
65685;BME280;52405;50.844;-1.062;2022-12-13T02:05:31;100932.25;;;2.23;68.11
65685;BME280;52405;50.844;-1.062;2022-12-13T02:07:59;100936.47;;;2.22;68.16
65685;BME280;52405;50.844;-1.062;2022-12-13T02:10:26;100933.03;;;2.22;68.05
65685;BME280;52405;50.844;-1.062;2022-12-13T02:12:52;100935.47;;;2.20;67.76
65685;BME280;52405;50.844;-1.062;2022-12-13T02:15:18;100927.59;;;2.17;67.46
65685;BME280;52405;50.844;-1.062;2022-12-13T02:20:36;100912.53;;;2.10;67.48
65685;BME280;52405;50.844;-1.062;2022-12-13T02:23:20;100930.91;;;2.16;67.48
65685;BME280;52405;50.844;-1.062;2022-12-13T02:29:00;100929.16;;;2.15;67.38
65685;BME280;52405;50.844;-1.062;2022-12-13T02:32:00;100935.59;;;2.10;67.48
65685;BME280;52405;50.844;-1.062;2022-12-13T02:34:35;100942.38;;;2.09;67.48
65685;BME280;52405;50.844;-1.062;2022-12-13T02:39:34;100928.56;;;2.07;67.75
65685;BME280;52405;50.844;-1.062;2022-12-13T02:42:20;100934.59;;;2.08;67.68
65685;BME280;52405;50.844;-1.062;2022-12-13T02:45:07;100925.88;;;2.06;67.39
65685;BME280;52405;50.844;-1.062;2022-12-13T02:47:36;100933.56;;;2.06;67.75
65685;BME280;52405;50.844;-1.062;2022-12-13T02:50:05;100937.94;;;2.07;68.02
65685;BME280;52405;50.844;-1.062;2022-12-13T02:52:31;100945.63;;;2.07;68.03
65685;BME280;52405;50.844;-1.062;2022-12-13T02:54:58;100947.06;;;2.03;67.59
65685;BME280;52405;50.844;-1.062;2022-12-13T02:59:52;100945.38;;;2.04;67.33
65685;BME280;52405;50.844;-1.062;2022-12-13T03:02:25;100935.06;;;2.02;67.94
65685;BME280;52405;50.844;-1.062;2022-12-13T03:05:08;100933.94;;;1.99;68.08
65685;BME280;52405;50.844;-1.062;2022-12-13T03:10:32;100924.47;;;1.98;67.96
65685;BME280;52405;50.844;-1.062;2022-12-13T03:13:06;100926.00;;;1.96;67.54
65685;BME280;52405;50.844;-1.062;2022-12-13T03:15:59;100918.44;;;1.97;67.83
65685;BME280;52405;50.844;-1.062;2022-12-13T03:18:30;100928.56;;;1.96;67.22
65685;BME280;52405;50.844;-1.062;2022-12-13T03:21:00;100931.81;;;1.93;67.43
65685;BME280;52405;50.844;-1.062;2022-12-13T03:23:27;100924.91;;;1.92;67.99
65685;BME280;52405;50.844;-1.062;2022-12-13T03:25:56;100935.91;;;1.91;68.22
65685;BME280;52405;50.844;-1.062;2022-12-13T03:28:23;100924.53;;;1.87;68.13
65685;BME280;52405;50.844;-1.062;2022-12-13T03:30:49;100923.22;;;1.92;67.72
65685;BME280;52405;50.844;-1.062;2022-12-13T03:33:15;100914.53;;;1.90;67.56
65685;BME280;52405;50.844;-1.062;2022-12-13T03:35:41;100931.69;;;1.91;67.99
65685;BME280;52405;50.844;-1.062;2022-12-13T03:38:07;100929.13;;;1.91;67.19
65685;BME280;52405;50.844;-1.062;2022-12-13T03:40:33;100926.69;;;1.93;67.55
65685;BME280;52405;50.844;-1.062;2022-12-13T03:43:00;100932.47;;;1.90;67.45
65685;BME280;52405;50.844;-1.062;2022-12-13T03:45:25;100928.13;;;1.89;66.95
65685;BME280;52405;50.844;-1.062;2022-12-13T03:47:51;100913.09;;;1.82;67.79
65685;BME280;52405;50.844;-1.062;2022-12-13T03:50:17;100919.22;;;1.84;67.11
65685;BME280;52405;50.844;-1.062;2022-12-13T03:52:42;100906.06;;;1.80;67.58
65685;BME280;52405;50.844;-1.062;2022-12-13T03:55:09;100910.53;;;1.82;67.66
65685;BME280;52405;50.844;-1.062;2022-12-13T03:57:34;100918.97;;;1.81;67.46
65685;BME280;52405;50.844;-1.062;2022-12-13T04:00:00;100915.41;;;1.79;67.98
65685;BME280;52405;50.844;-1.062;2022-12-13T04:02:26;100912.75;;;1.78;67.15
65685;BME280;52405;50.844;-1.062;2022-12-13T04:04:51;100910.97;;;1.77;67.10
65685;BME280;52405;50.844;-1.062;2022-12-13T04:07:17;100910.84;;;1.75;67.44
65685;BME280;52405;50.844;-1.062;2022-12-13T04:09:42;100910.75;;;1.73;67.87
65685;BME280;52405;50.844;-1.062;2022-12-13T04:12:08;100905.50;;;1.72;67.04
65685;BME280;52405;50.844;-1.062;2022-12-13T04:14:59;100910.50;;;1.70;67.42
65685;BME280;52405;50.844;-1.062;2022-12-13T04:17:25;100908.88;;;1.71;67.21
65685;BME280;52405;50.844;-1.062;2022-12-13T04:19:50;100909.63;;;1.70;67.58
65685;BME280;52405;50.844;-1.062;2022-12-13T04:22:16;100908.06;;;1.72;67.35
65685;BME280;52405;50.844;-1.062;2022-12-13T04:24:41;100895.03;;;1.69;67.33
65685;BME280;52405;50.844;-1.062;2022-12-13T04:27:07;100903.19;;;1.75;67.68
65685;BME280;52405;50.844;-1.062;2022-12-13T04:29:32;100903.06;;;1.73;67.49
65685;BME280;52405;50.844;-1.062;2022-12-13T04:31:58;100890.13;;;1.72;67.70
65685;BME280;52405;50.844;-1.062;2022-12-13T04:34:24;100892.25;;;1.78;67.82
65685;BME280;52405;50.844;-1.062;2022-12-13T04:36:49;100878.47;;;1.76;67.16
65685;BME280;52405;50.844;-1.062;2022-12-13T04:39:15;100880.69;;;1.83;66.93
65685;BME280;52405;50.844;-1.062;2022-12-13T04:41:40;100877.44;;;1.85;66.87
65685;BME280;52405;50.844;-1.062;2022-12-13T04:44:09;100887.03;;;1.88;67.04
65685;BME280;52405;50.844;-1.062;2022-12-13T04:46:35;100885.25;;;1.87;66.50
65685;BME280;52405;50.844;-1.062;2022-12-13T04:49:00;100895.59;;;1.88;67.12
65685;BME280;52405;50.844;-1.062;2022-12-13T04:51:26;100871.22;;;1.82;67.42
65685;BME280;52405;50.844;-1.062;2022-12-13T04:53:52;100882.81;;;1.88;67.08
65685;BME280;52405;50.844;-1.062;2022-12-13T04:56:17;100882.56;;;1.85;67.10
65685;BME280;52405;50.844;-1.062;2022-12-13T04:58:43;100882.03;;;1.89;66.36
65685;BME280;52405;50.844;-1.062;2022-12-13T05:01:09;100873.56;;;1.90;66.77
65685;BME280;52405;50.844;-1.062;2022-12-13T05:03:35;100882.13;;;1.91;66.62
65685;BME280;52405;50.844;-1.062;2022-12-13T05:06:10;100883.16;;;1.93;66.30
65685;BME280;52405;50.844;-1.062;2022-12-13T05:08:36;100887.59;;;1.96;66.10
65685;BME280;52405;50.844;-1.062;2022-12-13T05:11:05;100883.25;;;1.95;66.28
65685;BME280;52405;50.844;-1.062;2022-12-13T05:13:31;100884.47;;;2.00;66.18
65685;BME280;52405;50.844;-1.062;2022-12-13T05:16:00;100888.03;;;2.02;65.95
65685;BME280;52405;50.844;-1.062;2022-12-13T05:18:26;100888.03;;;2.02;65.78
65685;BME280;52405;50.844;-1.062;2022-12-13T05:20:52;100887.91;;;2.00;66.29
65685;BME280;52405;50.844;-1.062;2022-12-13T05:23:19;100884.59;;;2.01;65.68
65685;BME280;52405;50.844;-1.062;2022-12-13T05:25:45;100886.03;;;1.98;65.64
65685;BME280;52405;50.844;-1.062;2022-12-13T05:28:11;100880.47;;;1.91;65.41
65685;BME280;52405;50.844;-1.062;2022-12-13T05:30:38;100899.06;;;2.01;65.54
65685;BME280;52405;50.844;-1.062;2022-12-13T05:33:03;100898.97;;;1.99;65.74
65685;BME280;52405;50.844;-1.062;2022-12-13T05:35:29;100902.28;;;1.98;65.23
65685;BME280;52405;50.844;-1.062;2022-12-13T05:37:54;100904.72;;;1.97;65.97
65685;BME280;52405;50.844;-1.062;2022-12-13T05:40:24;100904.72;;;1.97;65.55
65685;BME280;52405;50.844;-1.062;2022-12-13T05:42:50;100909.66;;;1.93;64.96
65685;BME280;52405;50.844;-1.062;2022-12-13T05:45:16;100867.09;;;1.72;65.63
65685;BME280;52405;50.844;-1.062;2022-12-13T05:47:42;100911.31;;;1.93;66.02
65685;BME280;52405;50.844;-1.062;2022-12-13T05:50:08;100910.41;;;1.92;64.92
65685;BME280;52405;50.844;-1.062;2022-12-13T05:52:35;100902.72;;;1.92;65.89
65685;BME280;52405;50.844;-1.062;2022-12-13T05:55:00;100908.78;;;1.93;65.79
65685;BME280;52405;50.844;-1.062;2022-12-13T05:57:26;100909.66;;;1.93;64.89
65685;BME280;52405;50.844;-1.062;2022-12-13T05:59:51;100908.09;;;1.96;65.74
65685;BME280;52405;50.844;-1.062;2022-12-13T06:02:17;100902.09;;;1.95;65.60
65685;BME280;52405;50.844;-1.062;2022-12-13T06:04:42;100896.03;;;1.95;65.28
65685;BME280;52405;50.844;-1.062;2022-12-13T06:07:09;100902.97;;;1.96;65.30
65685;BME280;52405;50.844;-1.062;2022-12-13T06:09:35;100902.28;;;1.98;64.98
65685;BME280;52405;50.844;-1.062;2022-12-13T06:12:00;100898.97;;;1.99;64.80
65685;BME280;52405;50.844;-1.062;2022-12-13T06:14:26;100885.25;;;1.99;65.51
65685;BME280;52405;50.844;-1.062;2022-12-13T06:16:51;100884.22;;;1.97;65.41
65685;BME280;52405;50.844;-1.062;2022-12-13T06:19:18;100886.78;;;1.97;64.71
65685;BME280;52405;50.844;-1.062;2022-12-13T06:21:44;100886.03;;;1.98;64.96
65685;BME280;52405;50.844;-1.062;2022-12-13T06:24:09;100883.91;;;1.92;65.36
65685;BME280;52405;50.844;-1.062;2022-12-13T06:26:35;100896.28;;;1.98;65.46
65685;BME280;52405;50.844;-1.062;2022-12-13T06:29:00;100890.91;;;1.95;64.95
65685;BME280;52405;50.844;-1.062;2022-12-13T06:31:25;100895.16;;;1.94;64.54
65685;BME280;52405;50.844;-1.062;2022-12-13T06:33:51;100896.16;;;1.96;64.27
65685;BME280;52405;50.844;-1.062;2022-12-13T06:36:16;100884.16;;;1.95;65.15
65685;BME280;52405;50.844;-1.062;2022-12-13T06:38:42;100886.72;;;1.95;65.26
65685;BME280;52405;50.844;-1.062;2022-12-13T06:41:12;100890.03;;;1.94;65.19
65685;BME280;52405;50.844;-1.062;2022-12-13T06:43:43;100900.41;;;1.96;65.01
65685;BME280;52405;50.844;-1.062;2022-12-13T06:46:09;100900.53;;;1.97;64.98
65685;BME280;52405;50.844;-1.062;2022-12-13T06:48:35;100889.59;;;2.00;64.55
65685;BME280;52405;50.844;-1.062;2022-12-13T06:51:02;100891.38;;;2.01;64.43
65685;BME280;52405;50.844;-1.062;2022-12-13T06:53:28;100878.34;;;1.98;65.03
65685;BME280;52405;50.844;-1.062;2022-12-13T06:55:54;100882.13;;;2.03;64.46
65685;BME280;52405;50.844;-1.062;2022-12-13T06:58:20;100886.69;;;2.07;64.34
65685;BME280;52405;50.844;-1.062;2022-12-13T07:00:45;100890.25;;;2.09;64.34
65685;BME280;52405;50.844;-1.062;2022-12-13T07:03:11;100898.19;;;2.12;64.68
65685;BME280;52405;50.844;-1.062;2022-12-13T07:05:37;100910.31;;;2.15;64.00
65685;BME280;52405;50.844;-1.062;2022-12-13T07:08:03;100904.59;;;2.19;63.88
65685;BME280;52405;50.844;-1.062;2022-12-13T07:10:28;100898.84;;;2.21;65.11
65685;BME280;52405;50.844;-1.062;2022-12-13T07:12:54;100905.06;;;2.25;64.08
65685;BME280;52405;50.844;-1.062;2022-12-13T07:15:19;100895.94;;;2.28;64.64
65685;BME280;52405;50.844;-1.062;2022-12-13T07:17:48;100898.50;;;2.28;64.13
65685;BME280;52405;50.844;-1.062;2022-12-13T07:20:15;100904.72;;;2.32;64.51
65685;BME280;52405;50.844;-1.062;2022-12-13T07:22:40;100898.69;;;2.31;63.70
65685;BME280;52405;50.844;-1.062;2022-12-13T07:25:06;100914.31;;;2.35;63.81
65685;BME280;52405;50.844;-1.062;2022-12-13T07:27:32;100923.91;;;2.37;64.43
65685;BME280;52405;50.844;-1.062;2022-12-13T07:29:58;100924.78;;;2.38;63.68
65685;BME280;52405;50.844;-1.062;2022-12-13T07:32:24;100916.22;;;2.37;64.28
65685;BME280;52405;50.844;-1.062;2022-12-13T07:34:49;100914.53;;;2.38;63.90
65685;BME280;52405;50.844;-1.062;2022-12-13T07:37:15;100910.97;;;2.36;64.32
65685;BME280;52405;50.844;-1.062;2022-12-13T07:39:41;100910.16;;;2.37;63.96
65685;BME280;52405;50.844;-1.062;2022-12-13T07:42:06;100911.72;;;2.35;63.90
65685;BME280;52405;50.844;-1.062;2022-12-13T07:44:32;100917.53;;;2.32;63.63
65685;BME280;52405;50.844;-1.062;2022-12-13T07:46:57;100910.31;;;2.26;63.61
65685;BME280;52405;50.844;-1.062;2022-12-13T07:49:23;100915.63;;;2.29;63.13
65685;BME280;52405;50.844;-1.062;2022-12-13T07:51:49;100915.09;;;2.22;63.37
65685;BME280;52405;50.844;-1.062;2022-12-13T07:54:14;100917.00;;;2.24;63.41
65685;BME280;52405;50.844;-1.062;2022-12-13T07:56:40;100916.19;;;2.25;63.60
65685;BME280;52405;50.844;-1.062;2022-12-13T07:59:05;100922.91;;;2.23;63.14
65685;BME280;52405;50.844;-1.062;2022-12-13T08:01:32;100907.75;;;2.15;63.31
65685;BME280;52405;50.844;-1.062;2022-12-13T08:03:59;100919.22;;;2.20;63.04
65685;BME280;52405;50.844;-1.062;2022-12-13T08:06:25;100915.78;;;2.19;63.27
65685;BME280;52405;50.844;-1.062;2022-12-13T08:08:56;100908.84;;;2.18;63.55
65685;BME280;52405;50.844;-1.062;2022-12-13T08:11:22;100922.78;;;2.22;63.76
65685;BME280;52405;50.844;-1.062;2022-12-13T08:13:48;100927.91;;;2.22;63.46
65685;BME280;52405;50.844;-1.062;2022-12-13T08:16:13;100902.06;;;2.07;63.80
65685;BME280;52405;50.844;-1.062;2022-12-13T08:18:43;100925.47;;;2.23;63.30
65685;BME280;52405;50.844;-1.062;2022-12-13T08:21:09;100923.13;;;2.26;63.27
65685;BME280;52405;50.844;-1.062;2022-12-13T08:23:35;100933.50;;;2.28;63.33
65685;BME280;52405;50.844;-1.062;2022-12-13T08:26:02;100931.81;;;2.28;63.52
65685;BME280;52405;50.844;-1.062;2022-12-13T08:28:29;100933.69;;;2.31;63.09
65685;BME280;52405;50.844;-1.062;2022-12-13T08:31:01;100930.38;;;2.32;63.03
65685;BME280;52405;50.844;-1.062;2022-12-13T08:33:27;100933.22;;;2.37;63.51
65685;BME280;52405;50.844;-1.062;2022-12-13T08:35:54;100935.22;;;2.41;63.18
65685;BME280;52405;50.844;-1.062;2022-12-13T08:38:19;100935.47;;;2.44;63.20
65685;BME280;52405;50.844;-1.062;2022-12-13T08:40:45;100936.25;;;2.43;63.31
65685;BME280;52405;50.844;-1.062;2022-12-13T08:43:10;100920.53;;;2.38;63.07
65685;BME280;52405;50.844;-1.062;2022-12-13T08:45:36;100933.34;;;2.50;63.24
65685;BME280;52405;50.844;-1.062;2022-12-13T08:48:03;100926.53;;;2.50;63.19
65685;BME280;52405;50.844;-1.062;2022-12-13T08:50:29;100930.88;;;2.51;63.34
65685;BME280;52405;50.844;-1.062;2022-12-13T08:52:55;100908.84;;;2.42;63.15
65685;BME280;52405;50.844;-1.062;2022-12-13T08:55:20;100886.22;;;2.36;62.68
65685;BME280;52405;50.844;-1.062;2022-12-13T08:57:46;100934.66;;;2.57;62.97
65685;BME280;52405;50.844;-1.062;2022-12-13T09:00:14;100915.59;;;2.53;63.74
65685;BME280;52405;50.844;-1.062;2022-12-13T09:02:40;100912.59;;;2.59;63.13
65685;BME280;52405;50.844;-1.062;2022-12-13T09:05:07;100898.00;;;2.58;62.78
65685;BME280;52405;50.844;-1.062;2022-12-13T09:07:34;100910.56;;;2.66;63.46
65685;BME280;52405;50.844;-1.062;2022-12-13T09:10:06;100908.91;;;2.67;63.01
65685;BME280;52405;50.844;-1.062;2022-12-13T09:12:31;100895.75;;;2.62;62.93
65685;BME280;52405;50.844;-1.062;2022-12-13T09:14:57;100908.31;;;2.71;62.84
65685;BME280;52405;50.844;-1.062;2022-12-13T09:17:22;100904.19;;;2.73;62.87
65685;BME280;52405;50.844;-1.062;2022-12-13T09:19:48;100901.84;;;2.76;63.20
65685;BME280;52405;50.844;-1.062;2022-12-13T09:22:13;100910.44;;;2.77;63.28
65685;BME280;52405;50.844;-1.062;2022-12-13T09:24:40;100904.59;;;2.79;63.12
65685;BME280;52405;50.844;-1.062;2022-12-13T09:27:06;100896.91;;;2.79;62.48
65685;BME280;52405;50.844;-1.062;2022-12-13T09:29:35;100894.34;;;2.79;62.31
65685;BME280;52405;50.844;-1.062;2022-12-13T09:32:00;100896.56;;;2.86;62.21
65685;BME280;52405;50.844;-1.062;2022-12-13T09:34:26;100891.34;;;2.85;62.22
65685;BME280;52405;50.844;-1.062;2022-12-13T09:36:51;100899.22;;;2.88;62.15
65685;BME280;52405;50.844;-1.062;2022-12-13T09:39:17;100898.56;;;2.91;62.93
65685;BME280;52405;50.844;-1.062;2022-12-13T09:41:47;100882.25;;;2.90;62.55
65685;BME280;52405;50.844;-1.062;2022-12-13T09:46:45;100883.00;;;3.01;61.98
65685;BME280;52405;50.844;-1.062;2022-12-13T09:51:52;100893.59;;;3.05;62.63
65685;BME280;52405;50.844;-1.062;2022-12-13T09:54:21;100895.34;;;3.06;61.68
65685;BME280;52405;50.844;-1.062;2022-12-13T09:56:49;100886.66;;;3.04;62.95
65685;BME280;52405;50.844;-1.062;2022-12-13T09:59:16;100882.22;;;3.02;61.83
65685;BME280;52405;50.844;-1.062;2022-12-13T10:01:43;100891.81;;;3.04;62.51
65685;BME280;52405;50.844;-1.062;2022-12-13T10:04:12;100878.97;;;3.04;62.69
65685;BME280;52405;50.844;-1.062;2022-12-13T10:06:39;100886.66;;;3.04;62.37
65685;BME280;52405;50.844;-1.062;2022-12-13T10:09:06;100871.38;;;3.06;62.92
65685;BME280;52405;50.844;-1.062;2022-12-13T10:11:35;100874.16;;;3.09;62.08
65685;BME280;52405;50.844;-1.062;2022-12-13T10:14:04;100877.72;;;3.11;62.10
65685;BME280;52405;50.844;-1.062;2022-12-13T10:19:01;100889.28;;;3.18;62.71
65685;BME280;52405;50.844;-1.062;2022-12-13T10:21:31;100851.25;;;3.12;61.89
65685;BME280;52405;50.844;-1.062;2022-12-13T10:24:19;100863.34;;;3.26;61.62
65685;BME280;52405;50.844;-1.062;2022-12-13T10:26:45;100860.66;;;3.25;61.87
65685;BME280;52405;50.844;-1.062;2022-12-13T10:29:11;100872.38;;;3.33;61.12
65685;BME280;52405;50.844;-1.062;2022-12-13T10:31:45;100865.75;;;3.37;61.13
65685;BME280;52405;50.844;-1.062;2022-12-13T10:36:46;100835.59;;;3.21;62.17
65685;BME280;52405;50.844;-1.062;2022-12-13T10:39:41;100858.34;;;3.41;62.13
65685;BME280;52405;50.844;-1.062;2022-12-13T10:42:16;100851.44;;;3.40;61.87
65685;BME280;52405;50.844;-1.062;2022-12-13T10:44:42;100843.53;;;3.37;61.91
65685;BME280;52405;50.844;-1.062;2022-12-13T10:49:55;100841.09;;;3.52;61.67
65685;BME280;52405;50.844;-1.062;2022-12-13T10:54:50;100831.19;;;3.58;62.02
65685;BME280;52405;50.844;-1.062;2022-12-13T10:57:17;100835.94;;;3.65;62.35
65685;BME280;52405;50.844;-1.062;2022-12-13T10:59:45;100830.31;;;3.71;62.07
65685;BME280;52405;50.844;-1.062;2022-12-13T11:04:56;100818.16;;;3.82;61.39
65685;BME280;52405;50.844;-1.062;2022-12-13T11:09:50;100810.53;;;3.97;61.72
65685;BME280;52405;50.844;-1.062;2022-12-13T11:12:21;100801.75;;;4.07;60.59
65685;BME280;52405;50.844;-1.062;2022-12-13T11:15:00;100813.59;;;4.18;60.18
65685;BME280;52405;50.844;-1.062;2022-12-13T11:17:29;100811.50;;;4.25;61.10
65685;BME280;52405;50.844;-1.062;2022-12-13T11:20:16;100805.84;;;4.31;60.53
65685;BME280;52405;50.844;-1.062;2022-12-13T11:22:43;100787.59;;;4.27;60.69
65685;BME280;52405;50.844;-1.062;2022-12-13T11:25:52;100795.16;;;4.38;59.96
65685;BME280;52405;50.844;-1.062;2022-12-13T11:37:00;100783.50;;;4.58;60.55
65685;BME280;52405;50.844;-1.062;2022-12-13T11:39:32;100769.06;;;4.60;60.58
65685;BME280;52405;50.844;-1.062;2022-12-13T11:47:42;100764.44;;;4.55;60.41
65685;BME280;52405;50.844;-1.062;2022-12-13T11:50:18;100763.66;;;4.56;59.61
65685;BME280;52405;50.844;-1.062;2022-12-13T11:52:50;100764.00;;;4.62;60.11
65685;BME280;52405;50.844;-1.062;2022-12-13T11:55:20;100742.88;;;4.53;60.07
65685;BME280;52405;50.844;-1.062;2022-12-13T11:58:29;100759.13;;;4.67;59.13
65685;BME280;52405;50.844;-1.062;2022-12-13T12:01:14;100749.44;;;4.62;59.73
65685;BME280;52405;50.844;-1.062;2022-12-13T12:03:48;100738.47;;;4.65;60.32
65685;BME280;52405;50.844;-1.062;2022-12-13T12:06:26;100740.94;;;4.63;60.21
65685;BME280;52405;50.844;-1.062;2022-12-13T12:09:01;100735.81;;;4.63;59.83
65685;BME280;52405;50.844;-1.062;2022-12-13T12:11:35;100735.81;;;4.63;59.95
65685;BME280;52405;50.844;-1.062;2022-12-13T12:14:41;100738.53;;;4.67;60.96
65685;BME280;52405;50.844;-1.062;2022-12-13T12:17:01;100732.81;;;4.71;59.95
65685;BME280;52405;50.844;-1.062;2022-12-13T12:19:38;100708.38;;;4.64;59.85
65685;BME280;52405;50.844;-1.062;2022-12-13T12:25:32;100713.34;;;4.76;60.17
65685;BME280;52405;50.844;-1.062;2022-12-13T12:38:47;100709.91;;;4.90;60.33
65685;BME280;52405;50.844;-1.062;2022-12-13T12:42:18;100705.81;;;4.94;59.44
65685;BME280;52405;50.844;-1.062;2022-12-13T12:57:57;100683.69;;;5.27;59.05
65685;BME280;52405;50.844;-1.062;2022-12-13T13:00:22;100685.66;;;5.31;58.53
65685;BME280;52405;50.844;-1.062;2022-12-13T13:03:11;100677.94;;;5.31;59.16
65685;BME280;52405;50.844;-1.062;2022-12-13T13:05:47;100664.59;;;5.24;58.28
65685;BME280;52405;50.844;-1.062;2022-12-13T13:08:23;100668.09;;;5.24;59.05
65685;BME280;52405;50.844;-1.062;2022-12-13T13:10:51;100652.66;;;5.09;58.50
65685;BME280;52405;50.844;-1.062;2022-12-13T13:13:46;100665.00;;;5.15;58.52
65685;BME280;52405;50.844;-1.062;2022-12-13T13:16:32;100654.34;;;5.09;57.66
65685;BME280;52405;50.844;-1.062;2022-12-13T13:21:49;100643.69;;;5.02;57.57
65685;BME280;52405;50.844;-1.062;2022-12-13T13:27:25;100638.22;;;4.96;58.24
65685;BME280;52405;50.844;-1.062;2022-12-13T13:29:44;100644.16;;;4.95;58.54
65685;BME280;52405;50.844;-1.062;2022-12-13T13:34:43;100640.59;;;4.93;58.55
65685;BME280;52405;50.844;-1.062;2022-12-13T13:40:41;100637.84;;;4.90;57.58
65685;BME280;52405;50.844;-1.062;2022-12-13T13:56:42;100655.34;;;4.66;57.67
65685;BME280;52405;50.844;-1.062;2022-12-13T14:21:30;100648.78;;;4.13;58.63
65685;BME280;52405;50.844;-1.062;2022-12-13T14:29:44;100646.94;;;4.11;59.68
65685;BME280;52405;50.844;-1.062;2022-12-13T14:32:30;100648.63;;;4.10;58.79
65685;BME280;52405;50.844;-1.062;2022-12-13T14:35:00;100651.97;;;4.09;59.20
65685;BME280;52405;50.844;-1.062;2022-12-13T14:39:55;100645.97;;;4.09;59.61
65685;BME280;52405;50.844;-1.062;2022-12-13T14:42:23;100644.06;;;4.06;59.71
65685;BME280;52405;50.844;-1.062;2022-12-13T14:44:50;100654.91;;;4.15;60.07
65685;BME280;52405;50.844;-1.062;2022-12-13T14:47:16;100654.31;;;4.19;58.87
65685;BME280;52405;50.844;-1.062;2022-12-13T14:49:43;100651.91;;;4.22;59.88
65685;BME280;52405;50.844;-1.062;2022-12-13T14:52:28;100659.72;;;4.24;58.84
65685;BME280;52405;50.844;-1.062;2022-12-13T14:54:59;100658.03;;;4.24;58.59
65685;BME280;52405;50.844;-1.062;2022-12-13T14:57:28;100664.00;;;4.23;59.54
65685;BME280;52405;50.844;-1.062;2022-12-13T14:59:56;100657.00;;;4.21;58.60
65685;BME280;52405;50.844;-1.062;2022-12-13T15:02:24;100635.06;;;4.13;59.49
65685;BME280;52405;50.844;-1.062;2022-12-13T15:04:55;100651.84;;;4.21;58.78
65685;BME280;52405;50.844;-1.062;2022-12-13T15:07:25;100651.91;;;4.22;59.51
65685;BME280;52405;50.844;-1.062;2022-12-13T15:10:05;100641.28;;;4.16;59.36
65685;BME280;52405;50.844;-1.062;2022-12-13T15:12:42;100648.88;;;4.15;58.79